createdAt,value
2022-12-19T00:01:40.654Z,101614.81
2022-12-19T00:04:15.493Z,101613.06
2022-12-19T00:06:41.969Z,101627.09
2022-12-19T00:09:11.020Z,101621.66
2022-12-19T00:11:40.482Z,101629.59
2022-12-19T00:14:12.545Z,101620.63
2022-12-19T00:16:39.048Z,101606.19
2022-12-19T00:19:06.027Z,101613.44
2022-12-19T00:21:34.769Z,101602.63
2022-12-19T00:24:18.439Z,101605.25
2022-12-19T00:26:48.156Z,101613.34
2022-12-19T00:29:17.104Z,101604.38
2022-12-19T00:31:46.320Z,101599.97
2022-12-19T00:34:19.388Z,101591.78
2022-12-19T00:36:45.828Z,101584.50
2022-12-19T00:39:12.863Z,101589.78
2022-12-19T00:41:42.135Z,101583.56
2022-12-19T00:44:16.754Z,101578.97
2022-12-19T00:46:52.837Z,101576.47
2022-12-19T00:49:20.030Z,101576.31
2022-12-19T00:51:46.432Z,101563.88
2022-12-19T00:54:12.906Z,101570.78
2022-12-19T00:56:39.580Z,101561.91
2022-12-19T00:59:10.448Z,101579.66
2022-12-19T01:01:41.849Z,101569.81
2022-12-19T01:04:30.378Z,101575.19
2022-12-19T01:07:01.838Z,101571.56
2022-12-19T01:09:34.299Z,101567.09
2022-12-19T01:12:20.455Z,101572.31
2022-12-19T01:15:04.610Z,101567.09
2022-12-19T01:17:34.631Z,101566.03
2022-12-19T01:20:07.257Z,101572.25
2022-12-19T01:22:33.790Z,101570.34
2022-12-19T01:25:00.297Z,101572.19
2022-12-19T01:27:26.807Z,101570.25
2022-12-19T01:29:58.087Z,101563.16
2022-12-19T01:32:24.565Z,101562.22
2022-12-19T01:34:51.023Z,101560.50
2022-12-19T01:37:18.032Z,101571.03
2022-12-19T01:39:46.191Z,101557.56
2022-12-19T01:42:23.466Z,101564.66
2022-12-19T01:45:08.260Z,101557.47
2022-12-19T01:47:53.474Z,101559.97
2022-12-19T01:51:00.426Z,101552.69
2022-12-19T01:53:48.298Z,101531.19
2022-12-19T01:56:15.935Z,101542.69
2022-12-19T01:58:47.690Z,101531.97
2022-12-19T02:01:17.507Z,101528.25
2022-12-19T02:03:45.629Z,101515.75
2022-12-19T02:06:16.456Z,101511.91
2022-12-19T02:08:46.165Z,101518.03
2022-12-19T02:11:12.586Z,101517.94
2022-12-19T02:13:39.878Z,101534.88
2022-12-19T02:16:21.426Z,101528.38
2022-12-19T02:19:22.121Z,101523.91
2022-12-19T02:22:09.524Z,101527.44
2022-12-19T02:24:54.376Z,101539.03
2022-12-19T02:27:44.867Z,101527.38
2022-12-19T02:30:13.375Z,101526.38
2022-12-19T02:32:58.262Z,101524.50
2022-12-19T02:35:33.677Z,101518.28
2022-12-19T02:38:13.212Z,101511.97
2022-12-19T02:40:45.112Z,101511.09
2022-12-19T02:43:13.821Z,101499.44
2022-12-19T02:45:42.510Z,101498.38
2022-12-19T02:48:16.185Z,101507.28
2022-12-19T02:50:49.979Z,101510.84
2022-12-19T02:53:17.343Z,101508.91
2022-12-19T02:56:03.588Z,101515.06
2022-12-19T02:59:12.588Z,101505.97
2022-12-19T03:01:49.103Z,101505.97
2022-12-19T03:04:18.186Z,101524.59
2022-12-19T03:07:23.330Z,101529.88
2022-12-19T03:10:00.520Z,101529.69
2022-12-19T03:12:36.609Z,101521.66
2022-12-19T03:15:03.957Z,101528.75
2022-12-19T03:17:36.268Z,101526.06
2022-12-19T03:20:11.815Z,101527.81
2022-12-19T03:22:38.420Z,101527.81
2022-12-19T03:25:05.379Z,101526.84
2022-12-19T03:27:37.697Z,101533.06
2022-12-19T03:30:08.716Z,101540.16
2022-12-19T03:32:41.585Z,101531.16
2022-12-19T03:35:17.745Z,101530.28
2022-12-19T03:37:46.114Z,101523.00
2022-12-19T03:40:17.358Z,101514.97
2022-12-19T03:43:05.781Z,101509.63
2022-12-19T03:46:02.651Z,101505.03
2022-12-19T03:48:39.178Z,101497.00
2022-12-19T03:51:13.531Z,101495.06
2022-12-19T03:53:54.894Z,101488.84
2022-12-19T03:56:39.420Z,101502.25
2022-12-19T03:59:22.563Z,101501.41
2022-12-19T04:01:52.976Z,101502.34
2022-12-19T04:04:24.759Z,101500.63
2022-12-19T04:06:53.015Z,101495.25
2022-12-19T04:09:25.213Z,101493.44
2022-12-19T04:12:03.010Z,101496.81
2022-12-19T04:14:38.506Z,101503.09
2022-12-19T04:17:33.488Z,101494.19
2022-12-19T04:20:12.070Z,101487.91
2022-12-19T04:22:49.554Z,101496.88
2022-12-19T04:25:29.193Z,101499.47
2022-12-19T04:28:00.149Z,101497.75
2022-12-19T04:30:27.282Z,101491.53
2022-12-19T04:32:53.953Z,101501.41
2022-12-19T04:35:20.405Z,101493.19
2022-12-19T04:37:46.935Z,101499.56
2022-12-19T04:40:14.073Z,101489.91
2022-12-19T04:42:40.425Z,101486.34
2022-12-19T04:45:07.171Z,101481.84
2022-12-19T04:47:36.384Z,101477.38
2022-12-19T04:50:06.382Z,101481.84
2022-12-19T04:52:32.855Z,101478.25
2022-12-19T04:54:59.306Z,101474.59
2022-12-19T04:57:25.757Z,101478.25
2022-12-19T04:59:52.237Z,101474.59
2022-12-19T05:02:18.779Z,101473.75
2022-12-19T05:04:45.216Z,101480.91
2022-12-19T05:07:13.579Z,101468.25
2022-12-19T05:09:42.321Z,101462.81
2022-12-19T05:12:10.121Z,101463.69
2022-12-19T05:14:36.711Z,101462.81
2022-12-19T05:17:03.266Z,101468.94
2022-12-19T05:19:30.051Z,101470.59
2022-12-19T05:21:56.949Z,101459.88
2022-12-19T05:24:23.548Z,101460.72
2022-12-19T05:26:50.196Z,101447.34
2022-12-19T05:29:17.290Z,101451.72
2022-12-19T05:31:46.040Z,101445.41
2022-12-19T05:34:12.492Z,101451.50
2022-12-19T05:36:38.975Z,101443.38
2022-12-19T05:39:05.393Z,101444.16
2022-12-19T05:41:36.457Z,101451.16
2022-12-19T05:44:05.553Z,101448.34
2022-12-19T05:46:32.100Z,101463.50
2022-12-19T05:48:59.321Z,101460.72
2022-12-19T05:51:25.907Z,101462.53
2022-12-19T05:53:52.333Z,101460.63
2022-12-19T05:56:21.421Z,101456.03
2022-12-19T05:58:48.880Z,101452.50
2022-12-19T06:01:23.041Z,101456.91
2022-12-19T06:03:50.535Z,101463.13
2022-12-19T06:06:25.343Z,101467.50
2022-12-19T06:08:56.114Z,101468.38
2022-12-19T06:11:22.959Z,101476.34
2022-12-19T06:13:49.895Z,101465.63
2022-12-19T06:16:20.862Z,101461.94
2022-12-19T06:18:47.880Z,101466.28
2022-12-19T06:21:17.151Z,101460.06
2022-12-19T06:23:44.507Z,101460.81
2022-12-19T06:26:19.656Z,101455.28
2022-12-19T06:28:47.844Z,101456.97
2022-12-19T06:31:15.242Z,101447.03
2022-12-19T06:33:41.732Z,101455.94
2022-12-19T06:36:13.629Z,101455.81
2022-12-19T06:38:40.270Z,101453.94
2022-12-19T06:41:25.101Z,101446.63
2022-12-19T06:43:53.570Z,101446.44
2022-12-19T06:46:22.738Z,101443.56
2022-12-19T06:48:49.302Z,101447.97
2022-12-19T06:51:15.661Z,101461.28
2022-12-19T06:53:42.207Z,101456.78
2022-12-19T06:56:11.038Z,101452.09
2022-12-19T06:58:37.553Z,101446.59
2022-12-19T07:01:04.018Z,101446.50
2022-12-19T07:03:39.947Z,101441.06
2022-12-19T07:06:07.031Z,101447.94
2022-12-19T07:08:33.638Z,101443.44
2022-12-19T07:11:05.104Z,101441.41
2022-12-19T07:13:31.679Z,101440.38
2022-12-19T07:16:01.265Z,101439.50
2022-12-19T07:18:36.615Z,101445.53
2022-12-19T07:21:04.570Z,101444.56
2022-12-19T07:23:31.256Z,101447.25
2022-12-19T07:25:58.355Z,101444.47
2022-12-19T07:28:25.024Z,101438.22
2022-12-19T07:30:51.459Z,101436.19
2022-12-19T07:33:21.456Z,101444.91
2022-12-19T07:35:48.588Z,101439.53
2022-12-19T07:38:15.015Z,101437.44
2022-12-19T07:40:41.460Z,101457.66
2022-12-19T07:43:07.896Z,101454.97
2022-12-19T07:45:37.320Z,101453.16
2022-12-19T07:48:06.084Z,101453.91
2022-12-19T07:50:32.972Z,101456.50
2022-12-19T07:52:59.611Z,101448.03
2022-12-19T07:55:26.686Z,101454.16
2022-12-19T07:57:53.808Z,101458.34
2022-12-19T08:00:20.459Z,101474.38
2022-12-19T08:02:47.701Z,101462.56
2022-12-19T08:05:14.354Z,101472.13
2022-12-19T08:07:43.218Z,101464.72
2022-12-19T08:10:11.637Z,101474.53
2022-12-19T08:12:38.461Z,101474.31
2022-12-19T08:15:08.411Z,101468.84
2022-12-19T08:17:35.631Z,101466.91
2022-12-19T08:20:02.260Z,101472.84
2022-12-19T08:22:31.280Z,101461.03
2022-12-19T08:25:00.113Z,101444.81
2022-12-19T08:27:31.443Z,101453.75
2022-12-19T08:29:57.885Z,101455.25
2022-12-19T08:32:24.453Z,101460.22
2022-12-19T08:34:50.999Z,101461.72
2022-12-19T08:37:17.706Z,101466.78
2022-12-19T08:39:44.562Z,101466.66
2022-12-19T08:42:13.308Z,101446.91
2022-12-19T08:44:39.816Z,101447.47
2022-12-19T08:47:09.596Z,101446.28
2022-12-19T08:49:35.996Z,101441.56
2022-12-19T08:52:04.898Z,101437.69
2022-12-19T08:54:31.366Z,101437.47
2022-12-19T08:57:00.811Z,101443.50
2022-12-19T08:59:32.536Z,101440.81
2022-12-19T09:02:02.643Z,101447.69
2022-12-19T09:06:01.587Z,101436.06
2022-12-19T09:07:16.537Z,101427.78
2022-12-19T09:09:44.066Z,101422.84
2022-12-19T09:12:14.462Z,101422.53
2022-12-19T09:14:41.147Z,101420.47
2022-12-19T09:17:07.856Z,101408.44
2022-12-19T09:19:34.400Z,101405.63
2022-12-19T09:22:01.113Z,101401.09
2022-12-19T09:24:27.818Z,101396.59
2022-12-19T09:26:54.293Z,101403.47
2022-12-19T09:29:22.000Z,101411.41
2022-12-19T09:31:56.401Z,101408.53
2022-12-19T09:34:36.839Z,101410.78
2022-12-19T09:37:11.649Z,101416.91
2022-12-19T09:39:48.726Z,101417.44
2022-12-19T09:42:52.287Z,101414.41
2022-12-19T09:45:33.233Z,101424.84
2022-12-19T09:48:03.246Z,101431.59
2022-12-19T09:50:38.354Z,101433.97
2022-12-19T09:53:18.109Z,101415.75
2022-12-19T09:55:46.688Z,101415.44
2022-12-19T09:58:32.561Z,101410.47
2022-12-19T10:01:02.866Z,101400.09
2022-12-19T10:03:39.613Z,101402.69
2022-12-19T10:07:16.374Z,101399.75
2022-12-19T10:11:44.309Z,101388.88
2022-12-19T10:12:43.779Z,101389.03
2022-12-19T10:15:44.248Z,101384.19
2022-12-19T10:18:41.978Z,101386.53
2022-12-19T10:21:58.926Z,101380.16
2022-12-19T10:25:08.019Z,101395.28
2022-12-19T10:27:58.922Z,101385.63
2022-12-19T10:30:27.969Z,101370.75
2022-12-19T10:33:23.222Z,101369.50
2022-12-19T10:35:57.535Z,101370.28
2022-12-19T10:38:49.096Z,101384.03
2022-12-19T10:41:22.165Z,101377.69
2022-12-19T10:43:58.038Z,101359.78
2022-12-19T10:46:38.763Z,101361.25
2022-12-19T10:49:11.628Z,101353.63
2022-12-19T10:51:38.237Z,101360.63
2022-12-19T10:54:04.826Z,101357.56
2022-12-19T10:56:37.401Z,101345.81
2022-12-19T10:59:16.060Z,101324.13
2022-12-19T11:01:42.806Z,101312.22
2022-12-19T11:04:27.765Z,101320.84
2022-12-19T11:07:03.517Z,101324.66
2022-12-19T11:09:41.744Z,101319.63
2022-12-19T11:16:37.178Z,101323.28
2022-12-19T11:19:18.720Z,101330.16
2022-12-19T11:27:51.235Z,101323.75
2022-12-19T11:29:33.803Z,101343.13
2022-12-19T11:29:38.780Z,101331.59
2022-12-19T11:29:39.999Z,101331.59
2022-12-19T11:32:43.080Z,101321.13
2022-12-19T11:35:16.339Z,101314.84
2022-12-19T11:37:56.139Z,101306.53
2022-12-19T11:40:33.777Z,101300.84
2022-12-19T11:43:42.487Z,101294.50
2022-12-19T11:46:27.749Z,101293.25
2022-12-19T11:49:02.013Z,101285.41
2022-12-19T11:51:40.059Z,101288.97
2022-12-19T11:54:23.963Z,101287.03
2022-12-19T11:56:50.640Z,101277.25
2022-12-19T11:59:31.846Z,101282.94
2022-12-19T12:02:13.301Z,101296.06
2022-12-19T12:04:54.856Z,101276.03
2022-12-19T12:08:10.121Z,101267.94
2022-12-19T12:14:20.673Z,101268.53
2022-12-19T12:22:08.678Z,101267.06
2022-12-19T12:29:31.003Z,101273.44
2022-12-19T12:31:20.529Z,101263.72
2022-12-19T12:31:27.997Z,101250.22
2022-12-19T12:31:51.156Z,101236.06
2022-12-19T12:31:56.857Z,101241.25
2022-12-19T12:35:33.273Z,101238.00
2022-12-19T12:38:29.915Z,101246.22
2022-12-19T12:41:06.836Z,101231.59
2022-12-19T12:43:52.121Z,101231.59
2022-12-19T12:46:33.881Z,101232.00
2022-12-19T12:49:06.314Z,101254.97
2022-12-19T12:51:36.941Z,101239.25
2022-12-19T12:54:14.145Z,101247.59
2022-12-19T12:56:42.340Z,101239.34
2022-12-19T12:59:26.806Z,101255.97
2022-12-19T13:02:06.925Z,101249.44
2022-12-19T13:04:36.207Z,101239.63
2022-12-19T13:07:15.559Z,101240.16
2022-12-19T13:09:43.107Z,101228.81
2022-12-19T13:12:44.380Z,101236.44
2022-12-19T13:15:39.424Z,101241.31
2022-12-19T13:18:32.290Z,101239.47
2022-12-19T13:21:01.982Z,101231.13
2022-12-19T13:23:37.779Z,101222.06
2022-12-19T13:26:04.972Z,101227.84
2022-12-19T13:28:31.374Z,101228.84
2022-12-19T13:31:19.143Z,101229.94
2022-12-19T13:33:56.572Z,101228.47
2022-12-19T13:40:01.728Z,101246.94
2022-12-19T13:40:07.443Z,101240.19
2022-12-19T13:43:10.801Z,101237.13
2022-12-19T13:45:40.480Z,101233.31
2022-12-19T13:48:16.087Z,101232.00
2022-12-19T13:50:43.663Z,101236.53
2022-12-19T13:53:22.552Z,101238.38
2022-12-19T13:55:49.431Z,101238.25
2022-12-19T13:58:29.918Z,101241.94
2022-12-19T14:01:01.144Z,101241.34
2022-12-19T14:03:44.322Z,101245.75
2022-12-19T14:06:29.161Z,101241.81
2022-12-19T14:11:26.423Z,101247.97
2022-12-19T14:12:13.177Z,101241.22
2022-12-19T14:15:12.782Z,101237.91
2022-12-19T14:17:40.318Z,101237.44
2022-12-19T14:22:01.692Z,101238.53
2022-12-19T14:23:16.513Z,101238.06
2022-12-19T14:28:19.733Z,101224.19
2022-12-19T14:29:00.680Z,101225.47
2022-12-19T14:31:27.418Z,101227.78
2022-12-19T14:34:27.210Z,101220.09
2022-12-19T14:36:51.356Z,101216.38
2022-12-19T14:39:28.881Z,101212.09
2022-12-19T14:43:13.267Z,101209.78
2022-12-19T14:53:51.638Z,101215.31
2022-12-19T14:54:09.040Z,101217.34
2022-12-19T14:54:31.522Z,101209.16
2022-12-19T14:57:29.019Z,101190.66
2022-12-19T15:01:07.393Z,101189.19
2022-12-19T15:03:31.112Z,101198.50
2022-12-19T15:06:48.322Z,101212.56
2022-12-19T15:10:57.977Z,101217.72
2022-12-19T15:14:47.123Z,101217.81
2022-12-19T15:15:36.992Z,101220.34
2022-12-19T15:18:16.257Z,101215.34
2022-12-19T15:20:42.652Z,101217.63
2022-12-19T15:23:19.937Z,101208.81
2022-12-19T15:26:08.411Z,101199.16
2022-12-19T15:28:46.713Z,101198.53
2022-12-19T15:31:25.369Z,101200.72
2022-12-19T15:34:33.696Z,101193.22
2022-12-19T15:36:38.632Z,101197.97
2022-12-19T15:39:05.419Z,101189.16
2022-12-19T15:41:32.013Z,101178.19
2022-12-19T15:44:06.562Z,101185.16
2022-12-19T15:46:33.537Z,101170.81
2022-12-19T15:49:00.068Z,101175.06
2022-12-19T15:51:26.589Z,101177.28
2022-12-19T15:53:53.556Z,101183.00
2022-12-19T15:56:24.439Z,101177.22
2022-12-19T15:58:52.306Z,101171.00
2022-12-19T16:01:19.001Z,101174.78
2022-12-19T16:03:45.871Z,101171.91
2022-12-19T16:06:14.158Z,101180.31
2022-12-19T16:08:43.560Z,101178.09
2022-12-19T16:11:23.455Z,101177.47
2022-12-19T16:13:58.128Z,101167.16
2022-12-19T16:16:27.791Z,101169.97
2022-12-19T16:18:54.203Z,101167.28
2022-12-19T16:21:29.622Z,101173.75
2022-12-19T16:24:02.531Z,101178.38
2022-12-19T16:26:31.871Z,101166.25
2022-12-19T16:28:58.579Z,101167.09
2022-12-19T16:31:28.006Z,101153.53
2022-12-19T16:33:54.464Z,101149.91
2022-12-19T16:36:21.650Z,101154.75
2022-12-19T16:38:48.214Z,101165.41
2022-12-19T16:41:18.468Z,101160.13
2022-12-19T16:43:45.645Z,101148.41
2022-12-19T16:46:21.269Z,101147.63
2022-12-19T16:48:48.250Z,101149.25
2022-12-19T16:51:23.461Z,101155.56
2022-12-19T16:53:51.464Z,101167.28
2022-12-19T16:56:23.868Z,101157.72
2022-12-19T16:58:51.547Z,101149.56
2022-12-19T17:01:18.624Z,101160.19
2022-12-19T17:03:45.693Z,101168.88
2022-12-19T17:06:17.752Z,101162.63
2022-12-19T17:08:44.726Z,101163.50
2022-12-19T17:11:22.810Z,101171.75
2022-12-19T17:13:52.237Z,101173.44
2022-12-19T17:16:21.566Z,101174.50
2022-12-19T17:18:48.887Z,101158.22
2022-12-19T17:21:21.521Z,101166.44
2022-12-19T17:23:49.023Z,101161.53
2022-12-19T17:26:18.186Z,101162.81
2022-12-19T17:28:47.888Z,101158.69
2022-12-19T17:31:27.188Z,101151.09
2022-12-19T17:33:58.073Z,101148.66
2022-12-19T17:36:34.642Z,101145.28
2022-12-19T17:39:11.281Z,101140.38
2022-12-19T17:41:37.763Z,101138.31
2022-12-19T17:44:04.390Z,101147.50
2022-12-19T17:46:30.970Z,101149.47
2022-12-19T17:48:57.509Z,101150.19
2022-12-19T17:51:24.794Z,101146.53
2022-12-19T17:53:51.259Z,101153.66
2022-12-19T17:56:20.217Z,101161.84
2022-12-19T17:58:49.647Z,101165.16
2022-12-19T18:01:18.803Z,101163.94
2022-12-19T18:03:46.331Z,101161.84
2022-12-19T18:06:12.989Z,101146.41
2022-12-19T18:08:41.713Z,101156.22
2022-12-19T18:11:17.448Z,101147.91
2022-12-19T18:13:43.918Z,101138.47
2022-12-19T18:16:12.752Z,101138.84
2022-12-19T18:18:39.859Z,101132.50
2022-12-19T18:21:06.759Z,101141.53
2022-12-19T18:23:33.941Z,101149.38
2022-12-19T18:26:02.289Z,101140.44
2022-12-19T18:28:33.043Z,101138.50
2022-12-19T18:31:11.079Z,101141.28
2022-12-19T18:33:39.727Z,101144.59
2022-12-19T18:36:07.402Z,101146.06
2022-12-19T18:38:34.460Z,101137.28
2022-12-19T18:41:03.298Z,101142.91
2022-12-19T18:43:31.191Z,101130.16
2022-12-19T18:45:57.930Z,101132.84
2022-12-19T18:48:39.591Z,101133.09
2022-12-19T18:51:13.069Z,101141.19
2022-12-19T18:53:39.496Z,101149.38
2022-12-19T18:56:09.419Z,101139.34
2022-12-19T18:58:36.248Z,101141.91
2022-12-19T19:01:05.482Z,101153.69
2022-12-19T19:03:37.343Z,101152.69
2022-12-19T19:06:06.519Z,101146.06
2022-12-19T19:08:34.291Z,101145.34
2022-12-19T19:11:00.943Z,101128.44
2022-12-19T19:13:27.955Z,101130.16
2022-12-19T19:16:01.424Z,101135.78
2022-12-19T19:18:37.564Z,101139.97
2022-12-19T19:21:06.255Z,101141.44
2022-12-19T19:23:37.853Z,101134.06
2022-12-19T19:26:05.261Z,101125.88
2022-12-19T19:28:34.055Z,101127.09
2022-12-19T19:31:01.573Z,101122.56
2022-12-19T19:33:40.897Z,101133.09
2022-12-19T19:36:12.571Z,101121.34
2022-12-19T19:38:42.037Z,101134.06
2022-12-19T19:41:08.510Z,101127.69
2022-12-19T19:43:35.516Z,101130.75
2022-12-19T19:46:02.651Z,101137.59
2022-12-19T19:48:29.447Z,101133.31
2022-12-19T19:50:55.853Z,101133.91
2022-12-19T19:53:22.709Z,101130.59
2022-12-19T19:56:02.811Z,101131.72
2022-12-19T19:58:29.459Z,101134.75
2022-12-19T20:00:56.756Z,101142.25
2022-12-19T20:03:26.578Z,101137.13
2022-12-19T20:06:00.903Z,101134.41
2022-12-19T20:08:29.002Z,101134.53
2022-12-19T20:11:00.153Z,101136.00
2022-12-19T20:13:29.804Z,101129.47
2022-12-19T20:16:11.149Z,101130.84
2022-12-19T20:18:39.843Z,101113.28
2022-12-19T20:21:13.179Z,101127.34
2022-12-19T20:23:44.431Z,101114.50
2022-12-19T20:26:12.959Z,101127.50
2022-12-19T20:28:47.960Z,101128.81
2022-12-19T20:31:17.283Z,101130.81
2022-12-19T20:33:43.775Z,101130.53
2022-12-19T20:36:12.094Z,101133.34
2022-12-19T20:38:39.017Z,101132.22
2022-12-19T20:41:08.353Z,101130.88
2022-12-19T20:43:35.132Z,101144.00
2022-12-19T20:46:03.987Z,101137.63
2022-12-19T20:48:31.470Z,101142.53
2022-12-19T20:50:59.401Z,101146.06
2022-12-19T20:53:26.711Z,101144.84
2022-12-19T20:55:58.077Z,101149.50
2022-12-19T20:58:26.000Z,101149.31
2022-12-19T21:00:57.282Z,101151.16
2022-12-19T21:03:30.288Z,101151.16
2022-12-19T21:05:57.525Z,101155.34
2022-12-19T21:08:25.522Z,101151.63
2022-12-19T21:10:54.878Z,101149.44
2022-12-19T21:13:22.765Z,101151.19
2022-12-19T21:15:57.145Z,101140.34
2022-12-19T21:18:26.088Z,101136.19
2022-12-19T21:20:55.744Z,101138.25
2022-12-19T21:23:23.661Z,101135.53
2022-12-19T21:25:52.831Z,101137.88
2022-12-19T21:28:19.474Z,101147.34
2022-12-19T21:30:46.308Z,101142.53
2022-12-19T21:33:12.946Z,101139.13
2022-12-19T21:35:39.381Z,101136.88
2022-12-19T21:38:05.947Z,101133.97
2022-12-19T21:40:32.331Z,101136.03
2022-12-19T21:42:58.789Z,101134.13
2022-12-19T21:45:25.215Z,101126.84
2022-12-19T21:47:51.753Z,101136.63
2022-12-19T21:50:18.601Z,101135.53
2022-12-19T21:52:54.263Z,101123.31
2022-12-19T21:55:22.436Z,101124.16
2022-12-19T21:57:48.930Z,101121.72
2022-12-19T22:00:18.124Z,101123.78
2022-12-19T22:03:11.965Z,101129.13
2022-12-19T22:05:33.938Z,101128.59
2022-12-19T22:08:00.411Z,101127.19
2022-12-19T22:10:26.777Z,101134.31
2022-12-19T22:12:55.616Z,101133.34
2022-12-19T22:15:22.135Z,101136.03
2022-12-19T22:17:48.537Z,101136.91
2022-12-19T22:20:15.396Z,101135.66
2022-12-19T22:22:44.079Z,101122.81
2022-12-19T22:25:10.459Z,101126.09
2022-12-19T22:27:36.871Z,101137.50
2022-12-19T22:30:10.895Z,101130.03
2022-12-19T22:32:40.149Z,101131.72
2022-12-19T22:35:07.173Z,101135.91
2022-12-19T22:37:36.667Z,101131.28
2022-12-19T22:40:06.139Z,101124.19
2022-12-19T22:42:32.558Z,101108.13
2022-12-19T22:44:59.413Z,101113.47
2022-12-19T22:47:31.036Z,101109.63
2022-12-19T22:49:57.424Z,101105.75
2022-12-19T22:52:24.625Z,101107.75
2022-12-19T22:54:51.304Z,101103.69
2022-12-19T22:57:17.797Z,101110.72
2022-12-19T22:59:44.608Z,101111.69
2022-12-19T23:02:11.147Z,101103.47
2022-12-19T23:04:37.777Z,101097.22
2022-12-19T23:07:06.447Z,101094.94
2022-12-19T23:09:32.948Z,101092.41
2022-12-19T23:11:59.504Z,101098.38
2022-12-19T23:14:25.925Z,101098.25
2022-12-19T23:16:52.504Z,101097.56
2022-12-19T23:19:21.526Z,101101.53
2022-12-19T23:21:50.624Z,101111.94
2022-12-19T23:24:17.089Z,101101.53
2022-12-19T23:26:43.880Z,101098.00
2022-12-19T23:29:13.258Z,101097.78
2022-12-19T23:31:41.831Z,101097.69
2022-12-19T23:34:08.808Z,101097.97
2022-12-19T23:37:09.579Z,101102.91
2022-12-19T23:39:25.047Z,101099.50
2022-12-19T23:41:51.642Z,101096.69
2022-12-19T23:44:20.681Z,101089.47
2022-12-19T23:46:47.084Z,101100.28
2022-12-19T23:49:16.020Z,101099.31
2022-12-19T23:51:47.219Z,101096.94
2022-12-19T23:54:13.869Z,101093.66
2022-12-19T23:56:40.284Z,101093.13
2022-12-19T23:59:09.069Z,101096.16
